createdAt,value
2023-01-12T00:01:55.948Z,2.80
2023-01-12T00:04:23.231Z,3.63
2023-01-12T00:06:50.611Z,3.65
2023-01-12T00:09:17.812Z,3.50
2023-01-12T00:11:45.008Z,3.50
2023-01-12T00:14:12.257Z,3.42
2023-01-12T00:16:39.621Z,3.80
2023-01-12T00:19:18.356Z,3.60
2023-01-12T00:21:59.273Z,4.20
2023-01-12T00:24:48.051Z,3.85
2023-01-12T00:27:18.967Z,3.00
2023-01-12T00:29:46.204Z,3.60
2023-01-12T00:32:19.458Z,3.97
2023-01-12T00:34:46.718Z,3.70
2023-01-12T00:37:14.047Z,3.50
2023-01-12T00:39:45.857Z,3.33
2023-01-12T00:42:42.327Z,3.60
2023-01-12T00:45:22.780Z,3.08
2023-01-12T00:47:50.353Z,3.45
2023-01-12T00:50:19.487Z,3.47
2023-01-12T00:52:46.951Z,3.28
2023-01-12T00:55:14.364Z,3.60
2023-01-12T00:57:41.539Z,3.90
2023-01-12T01:00:09.372Z,3.55
2023-01-12T01:02:36.764Z,3.58
2023-01-12T01:05:04.120Z,3.90
2023-01-12T01:07:31.279Z,3.60
2023-01-12T01:09:58.424Z,3.63
2023-01-12T01:12:25.554Z,3.55
2023-01-12T01:14:53.506Z,4.15
2023-01-12T01:17:20.824Z,3.92
2023-01-12T01:19:48.345Z,3.38
2023-01-12T01:22:15.570Z,4.10
2023-01-12T01:24:42.710Z,4.38
2023-01-12T01:27:09.952Z,3.85
2023-01-12T01:29:37.152Z,4.53
2023-01-12T01:32:04.953Z,4.35
2023-01-12T01:34:32.553Z,4.60
2023-01-12T01:36:59.853Z,5.47
2023-01-12T01:39:27.008Z,3.92
2023-01-12T01:41:54.227Z,5.10
2023-01-12T01:44:30.585Z,5.03
2023-01-12T01:47:06.505Z,5.32
2023-01-12T01:49:47.895Z,5.35
2023-01-12T01:52:20.583Z,4.82
2023-01-12T01:54:50.852Z,4.75
2023-01-12T01:57:18.595Z,5.30
2023-01-12T01:59:50.231Z,5.20
2023-01-12T02:02:18.283Z,4.80
2023-01-12T02:04:45.804Z,4.55
2023-01-12T02:07:13.122Z,5.50
2023-01-12T02:09:40.678Z,5.15
2023-01-12T02:12:26.956Z,4.97
2023-01-12T02:15:13.993Z,4.90
2023-01-12T02:18:10.765Z,5.50
2023-01-12T02:20:37.995Z,5.05
2023-01-12T02:23:34.911Z,4.95
2023-01-12T02:26:33.336Z,4.40
2023-01-12T02:29:06.240Z,4.65
2023-01-12T02:31:39.203Z,3.90
2023-01-12T02:34:19.084Z,4.50
2023-01-12T02:37:07.229Z,3.80
2023-01-12T02:39:50.399Z,3.88
2023-01-12T02:42:39.077Z,3.83
2023-01-12T02:45:30.480Z,3.88
2023-01-12T02:48:17.794Z,3.35
2023-01-12T02:50:52.474Z,3.38
2023-01-12T02:54:01.176Z,3.58
2023-01-12T02:56:51.822Z,3.55
2023-01-12T02:59:29.982Z,3.15
2023-01-12T03:02:06.295Z,3.03
2023-01-12T03:04:34.132Z,2.95
2023-01-12T03:07:01.317Z,2.78
2023-01-12T03:09:41.842Z,2.50
2023-01-12T03:12:14.190Z,2.92
2023-01-12T03:14:45.019Z,3.00
2023-01-12T03:17:42.219Z,3.20
2023-01-12T03:20:19.029Z,3.40
2023-01-12T03:22:49.370Z,3.53
2023-01-12T03:25:18.074Z,2.97
2023-01-12T03:27:50.915Z,2.40
2023-01-12T03:30:24.707Z,2.47
2023-01-12T03:32:51.957Z,2.60
2023-01-12T03:35:24.807Z,2.60
2023-01-12T03:37:58.677Z,2.40
2023-01-12T03:40:38.926Z,2.63
2023-01-12T03:43:17.533Z,2.33
2023-01-12T03:45:54.804Z,3.38
2023-01-12T03:48:54.417Z,2.75
2023-01-12T03:51:29.453Z,2.30
2023-01-12T03:53:57.734Z,1.77
2023-01-12T03:56:28.879Z,2.70
2023-01-12T03:58:56.476Z,2.08
2023-01-12T04:01:23.972Z,2.00
2023-01-12T04:03:51.183Z,2.30
2023-01-12T04:06:18.327Z,2.97
2023-01-12T04:08:45.524Z,2.35
2023-01-12T04:11:31.755Z,2.40
2023-01-12T04:13:58.985Z,1.88
2023-01-12T04:16:26.242Z,1.88
2023-01-12T04:18:53.438Z,1.90
2023-01-12T04:21:39.156Z,1.90
2023-01-12T04:24:06.444Z,1.70
2023-01-12T04:26:33.575Z,1.50
2023-01-12T04:29:00.723Z,1.90
2023-01-12T04:31:27.864Z,1.60
2023-01-12T04:33:55.020Z,1.40
2023-01-12T04:36:22.216Z,1.48
2023-01-12T04:38:49.430Z,1.70
2023-01-12T04:41:16.653Z,1.97
2023-01-12T04:43:45.542Z,1.60
2023-01-12T04:46:12.704Z,1.70
2023-01-12T04:48:40.641Z,2.10
2023-01-12T04:51:07.790Z,1.98
2023-01-12T04:53:35.024Z,1.70
2023-01-12T04:56:06.310Z,1.60
2023-01-12T04:58:34.885Z,1.50
2023-01-12T05:01:17.322Z,1.65
2023-01-12T05:03:45.095Z,1.60
2023-01-12T05:06:12.864Z,1.50
2023-01-12T05:09:00.426Z,1.75
2023-01-12T05:11:28.787Z,1.40
2023-01-12T05:13:57.084Z,1.45
2023-01-12T05:16:25.387Z,1.35
2023-01-12T05:18:55.612Z,1.80
2023-01-12T05:21:24.030Z,1.95
2023-01-12T05:23:54.060Z,1.70
2023-01-12T05:26:21.295Z,1.50
2023-01-12T05:28:49.983Z,1.20
2023-01-12T05:31:19.385Z,1.25
2023-01-12T05:33:47.083Z,1.50
2023-01-12T05:36:16.259Z,1.30
2023-01-12T05:38:43.940Z,1.45
2023-01-12T05:41:14.304Z,1.20
2023-01-12T05:43:51.756Z,1.27
2023-01-12T05:46:20.732Z,1.50
2023-01-12T05:48:48.339Z,1.50
2023-01-12T05:51:16.163Z,1.48
2023-01-12T05:53:43.568Z,1.40
2023-01-12T05:56:28.397Z,1.35
2023-01-12T05:58:58.492Z,1.30
2023-01-12T06:01:26.819Z,1.50
2023-01-12T06:03:56.333Z,1.48
2023-01-12T06:06:30.520Z,1.02
2023-01-12T06:08:59.564Z,0.70
2023-01-12T06:11:49.666Z,0.60
2023-01-12T06:14:17.195Z,0.70
2023-01-12T06:16:44.570Z,0.60
2023-01-12T06:19:13.027Z,0.60
2023-01-12T06:21:41.116Z,0.95
2023-01-12T06:24:08.902Z,0.82
2023-01-12T06:26:36.122Z,0.77
2023-01-12T06:29:06.796Z,1.40
2023-01-12T06:31:34.646Z,1.05
2023-01-12T06:34:01.831Z,3.70
2023-01-12T06:36:29.027Z,3.40
2023-01-12T06:38:56.264Z,3.42
2023-01-12T06:41:42.182Z,3.85
2023-01-12T06:44:09.375Z,3.50
2023-01-12T06:46:37.003Z,3.87
2023-01-12T06:49:04.332Z,4.47
2023-01-12T06:51:31.502Z,4.53
2023-01-12T06:53:58.875Z,4.38
2023-01-12T06:56:26.016Z,5.00
2023-01-12T06:58:53.377Z,3.87
2023-01-12T07:01:20.943Z,4.25
2023-01-12T07:03:48.258Z,3.47
2023-01-12T07:06:16.508Z,4.45
2023-01-12T07:08:43.714Z,4.10
2023-01-12T07:11:15.005Z,3.97
2023-01-12T07:13:42.227Z,3.88
2023-01-12T07:16:09.980Z,5.23
2023-01-12T07:18:37.174Z,4.32
2023-01-12T07:21:08.967Z,4.07
2023-01-12T07:23:37.776Z,4.35
2023-01-12T07:26:05.181Z,3.83
2023-01-12T07:28:33.703Z,4.15
2023-01-12T07:31:02.190Z,3.85
2023-01-12T07:33:29.443Z,4.70
2023-01-12T07:36:01.235Z,4.65
2023-01-12T07:38:29.462Z,4.00
2023-01-12T07:41:03.991Z,3.27
2023-01-12T07:43:33.452Z,4.65
2023-01-12T07:46:00.866Z,3.53
2023-01-12T07:48:28.128Z,3.65
2023-01-12T07:50:58.593Z,3.60
2023-01-12T07:53:26.412Z,3.72
2023-01-12T07:55:53.567Z,4.07
2023-01-12T07:58:20.994Z,3.50
2023-01-12T08:00:48.155Z,3.17
2023-01-12T08:03:15.413Z,3.20
2023-01-12T08:05:42.697Z,3.53
2023-01-12T08:08:09.903Z,2.90
2023-01-12T08:10:37.117Z,3.38
2023-01-12T08:13:04.318Z,3.60
2023-01-12T08:15:35.670Z,3.45
2023-01-12T08:18:13.411Z,3.30
2023-01-12T08:20:41.068Z,3.17
2023-01-12T08:23:19.153Z,3.57
2023-01-12T08:25:56.038Z,3.67
2023-01-12T08:28:33.877Z,3.40
2023-01-12T08:31:01.378Z,3.95
2023-01-12T08:33:28.713Z,4.35
2023-01-12T08:35:56.163Z,3.97
2023-01-12T08:38:23.808Z,3.87
2023-01-12T08:41:09.451Z,3.42
2023-01-12T08:43:55.505Z,3.17
2023-01-12T08:46:25.184Z,4.10
2023-01-12T08:48:53.803Z,3.85
2023-01-12T08:51:20.992Z,3.45
2023-01-12T08:53:48.950Z,3.40
2023-01-12T08:56:16.183Z,3.55
2023-01-12T08:58:43.489Z,3.78
2023-01-12T09:01:13.640Z,3.45
2023-01-12T09:03:41.080Z,3.45
2023-01-12T09:06:10.394Z,3.83
2023-01-12T09:08:37.762Z,3.53
2023-01-12T09:11:06.081Z,3.95
2023-01-12T09:13:34.278Z,3.67
2023-01-12T09:16:13.857Z,3.17
2023-01-12T09:18:41.898Z,3.28
2023-01-12T09:21:15.340Z,3.20
2023-01-12T09:23:43.820Z,3.80
2023-01-12T09:26:16.390Z,3.00
2023-01-12T09:28:45.010Z,4.15
2023-01-12T09:31:18.975Z,3.42
2023-01-12T09:33:46.942Z,3.47
2023-01-12T09:36:16.946Z,3.33
2023-01-12T09:38:45.356Z,3.83
2023-01-12T09:41:41.179Z,4.20
2023-01-12T09:44:52.343Z,3.67
2023-01-12T09:47:28.213Z,3.50
2023-01-12T09:50:18.168Z,3.67
2023-01-12T09:52:59.843Z,3.90
2023-01-12T09:55:32.854Z,4.50
2023-01-12T09:58:24.122Z,3.67
2023-01-12T10:00:54.192Z,3.77
2023-01-12T10:03:38.927Z,4.18
2023-01-12T10:06:08.924Z,4.13
2023-01-12T10:08:40.353Z,4.25
2023-01-12T10:11:32.465Z,4.05
2023-01-12T10:14:24.527Z,3.90
2023-01-12T10:17:06.846Z,4.30
2023-01-12T10:19:51.126Z,3.97
2023-01-12T10:22:37.867Z,3.75
2023-01-12T10:25:34.820Z,3.93
2023-01-12T10:28:07.296Z,3.70
2023-01-12T10:30:38.044Z,3.55
2023-01-12T10:33:21.630Z,4.47
2023-01-12T10:35:51.995Z,3.70
2023-01-12T10:38:30.065Z,3.73
2023-01-12T10:41:05.301Z,4.38
2023-01-12T10:43:33.990Z,3.88
2023-01-12T10:46:21.904Z,3.72
2023-01-12T10:48:51.983Z,3.70
2023-01-12T10:51:27.082Z,3.73
2023-01-12T10:54:09.504Z,3.95
2023-01-12T10:56:40.608Z,3.63
2023-01-12T10:59:13.815Z,4.85
2023-01-12T11:01:52.677Z,3.83
2023-01-12T11:04:22.607Z,3.90
2023-01-12T11:07:01.525Z,4.18
2023-01-12T11:09:31.596Z,3.63
2023-01-12T11:12:04.431Z,3.70
2023-01-12T11:14:39.448Z,3.80
2023-01-12T11:17:37.688Z,4.30
2023-01-12T11:20:16.345Z,3.20
2023-01-12T11:22:46.001Z,3.83
2023-01-12T11:25:23.325Z,4.72
2023-01-12T11:28:01.821Z,4.03
2023-01-12T11:30:36.739Z,3.97
2023-01-12T11:33:12.416Z,4.30
2023-01-12T11:36:03.033Z,3.47
2023-01-12T11:38:43.476Z,3.67
2023-01-12T11:41:37.733Z,4.25
2023-01-12T11:44:15.177Z,3.55
2023-01-12T11:46:47.633Z,4.40
2023-01-12T11:49:20.701Z,4.35
2023-01-12T11:51:51.271Z,4.05
2023-01-12T11:54:19.231Z,3.60
2023-01-12T11:57:24.127Z,4.00
2023-01-12T12:00:06.165Z,3.22
2023-01-12T12:03:07.234Z,3.28
2023-01-12T12:05:48.637Z,3.78
2023-01-12T12:08:43.535Z,4.20
2023-01-12T12:11:54.095Z,3.28
2023-01-12T12:14:51.564Z,3.42
2023-01-12T12:17:36.647Z,2.85
2023-01-12T12:20:21.749Z,3.17
2023-01-12T12:23:25.442Z,3.35
2023-01-12T12:26:15.843Z,3.03
2023-01-12T12:29:14.363Z,2.83
2023-01-12T12:31:56.633Z,3.05
2023-01-12T12:34:45.141Z,2.90
2023-01-12T12:37:40.581Z,2.92
2023-01-12T12:40:52.694Z,2.47
2023-01-12T12:43:53.698Z,2.88
2023-01-12T12:46:49.561Z,3.80
2023-01-12T12:49:22.185Z,3.07
2023-01-12T12:51:50.925Z,3.05
2023-01-12T12:54:20.124Z,2.83
2023-01-12T12:56:48.585Z,2.50
2023-01-12T12:59:34.162Z,3.10
2023-01-12T13:02:03.502Z,2.45
2023-01-12T13:04:42.731Z,3.27
2023-01-12T13:07:20.169Z,2.90
2023-01-12T13:09:48.910Z,2.45
2023-01-12T13:12:32.130Z,2.87
2023-01-12T13:15:20.160Z,2.63
2023-01-12T13:17:49.081Z,2.83
2023-01-12T13:20:25.575Z,2.60
2023-01-12T13:22:53.748Z,2.42
2023-01-12T13:25:22.072Z,2.85
2023-01-12T13:28:01.316Z,2.72
2023-01-12T13:30:28.643Z,3.30
2023-01-12T13:33:17.222Z,2.33
2023-01-12T13:35:44.827Z,2.28
2023-01-12T13:38:31.895Z,1.90
2023-01-12T13:41:55.057Z,2.00
2023-01-12T13:44:37.147Z,2.00
2023-01-12T13:47:14.021Z,2.15
2023-01-12T13:49:51.766Z,1.77
2023-01-12T13:52:35.408Z,1.63
2023-01-12T13:55:17.908Z,1.58
2023-01-12T13:57:57.042Z,1.50
2023-01-12T14:00:25.078Z,1.60
2023-01-12T14:02:53.521Z,1.77
2023-01-12T14:05:59.098Z,1.27
2023-01-12T14:08:56.155Z,1.40
2023-01-12T14:12:21.659Z,1.33
2023-01-12T14:15:40.147Z,1.60
2023-01-12T14:18:14.623Z,1.42
2023-01-12T14:21:31.821Z,1.40
2023-01-12T14:24:14.609Z,1.45
2023-01-12T14:26:41.792Z,1.50
2023-01-12T14:29:12.850Z,1.60
2023-01-12T14:31:44.381Z,1.50
2023-01-12T14:34:31.755Z,1.45
2023-01-12T14:37:00.135Z,1.50
2023-01-12T14:39:31.051Z,1.75
2023-01-12T14:42:17.392Z,1.67
2023-01-12T14:45:14.403Z,2.17
2023-01-12T14:47:41.987Z,1.70
2023-01-12T14:50:19.253Z,1.70
2023-01-12T14:52:48.110Z,1.87
2023-01-12T14:55:27.767Z,1.52
2023-01-12T14:58:01.304Z,1.52
2023-01-12T15:00:31.664Z,1.60
2023-01-12T15:03:00.907Z,1.40
2023-01-12T15:05:30.003Z,1.10
2023-01-12T15:07:57.193Z,1.48
2023-01-12T15:10:39.786Z,1.20
2023-01-12T15:13:30.495Z,1.35
2023-01-12T15:16:16.713Z,1.50
2023-01-12T15:19:03.324Z,1.40
2023-01-12T15:21:50.764Z,1.50
2023-01-12T15:24:47.940Z,1.42
2023-01-12T15:27:17.889Z,1.20
2023-01-12T15:29:45.565Z,1.45
2023-01-12T15:32:21.631Z,1.80
2023-01-12T15:34:49.452Z,1.60
2023-01-12T15:37:18.397Z,1.50
2023-01-12T15:39:46.341Z,1.42
2023-01-12T15:42:16.141Z,1.30
2023-01-12T15:44:48.107Z,1.35
2023-01-12T15:47:16.624Z,1.50
2023-01-12T15:49:48.716Z,1.58
2023-01-12T15:52:20.312Z,1.40
2023-01-12T15:54:47.583Z,1.33
2023-01-12T15:57:15.606Z,1.30
2023-01-12T15:59:42.776Z,1.52
2023-01-12T16:02:23.702Z,1.67
2023-01-12T16:04:51.224Z,1.05
2023-01-12T16:07:18.410Z,1.00
2023-01-12T16:09:47.579Z,1.10
2023-01-12T16:12:15.386Z,1.10
2023-01-12T16:14:43.440Z,1.00
2023-01-12T16:17:10.931Z,1.30
2023-01-12T16:19:41.384Z,1.00
2023-01-12T16:22:20.824Z,1.30
2023-01-12T16:24:49.257Z,1.20
2023-01-12T16:27:17.569Z,1.30
2023-01-12T16:29:45.063Z,1.40
2023-01-12T16:32:13.164Z,1.13
2023-01-12T16:34:41.152Z,1.17
2023-01-12T16:37:13.469Z,1.23
2023-01-12T16:39:41.488Z,1.40
2023-01-12T16:42:09.416Z,1.30
2023-01-12T16:44:38.965Z,1.50
2023-01-12T16:47:11.795Z,1.40
2023-01-12T16:49:39.634Z,1.40
2023-01-12T16:52:08.285Z,1.35
2023-01-12T16:54:41.634Z,1.58
2023-01-12T16:57:10.374Z,1.70
2023-01-12T16:59:37.979Z,1.53
2023-01-12T17:02:08.455Z,1.50
2023-01-12T17:04:38.132Z,1.80
2023-01-12T17:07:06.425Z,1.60
2023-01-12T17:09:38.623Z,1.67
2023-01-12T17:12:06.771Z,1.88
2023-01-12T17:14:34.821Z,2.00
2023-01-12T17:17:06.517Z,1.90
2023-01-12T17:19:35.843Z,2.05
2023-01-12T17:22:03.965Z,2.15
2023-01-12T17:24:33.382Z,1.98
2023-01-12T17:27:01.008Z,1.90
2023-01-12T17:29:28.626Z,2.50
2023-01-12T17:32:03.629Z,2.38
2023-01-12T17:34:39.338Z,2.42
2023-01-12T17:37:09.967Z,1.95
2023-01-12T17:39:42.897Z,1.75
2023-01-12T17:42:33.890Z,2.08
2023-01-12T17:45:01.472Z,1.77
2023-01-12T17:47:28.807Z,1.77
2023-01-12T17:49:56.024Z,2.35
2023-01-12T17:52:23.230Z,2.50
2023-01-12T17:54:50.413Z,2.13
2023-01-12T17:57:17.669Z,2.23
2023-01-12T17:59:44.916Z,2.30
2023-01-12T18:02:14.247Z,2.70
2023-01-12T18:04:41.641Z,2.57
2023-01-12T18:07:08.835Z,2.10
2023-01-12T18:09:36.889Z,2.55
2023-01-12T18:12:05.136Z,2.55
2023-01-12T18:14:32.419Z,2.38
2023-01-12T18:16:59.598Z,3.05
2023-01-12T18:19:26.893Z,2.80
2023-01-12T18:21:54.088Z,3.28
2023-01-12T18:24:22.265Z,2.60
2023-01-12T18:26:50.835Z,2.90
2023-01-12T18:29:18.100Z,2.83
2023-01-12T18:31:47.220Z,2.90
2023-01-12T18:34:16.578Z,2.80
2023-01-12T18:36:43.845Z,2.40
2023-01-12T18:39:20.529Z,2.80
2023-01-12T18:42:07.674Z,2.50
2023-01-12T18:44:35.585Z,2.53
2023-01-12T18:47:22.714Z,2.50
2023-01-12T18:49:50.194Z,2.30
2023-01-12T18:52:37.054Z,2.60
2023-01-12T18:55:05.281Z,2.35
2023-01-12T18:57:33.584Z,2.50
2023-01-12T19:00:17.863Z,2.50
2023-01-12T19:02:45.342Z,2.15
2023-01-12T19:05:17.002Z,3.05
2023-01-12T19:08:10.284Z,2.40
2023-01-12T19:10:37.420Z,2.40
2023-01-12T19:13:23.093Z,2.42
2023-01-12T19:16:09.044Z,2.58
2023-01-12T19:18:40.553Z,2.50
2023-01-12T19:21:27.190Z,2.47
2023-01-12T19:24:13.252Z,2.10
2023-01-12T19:26:59.121Z,2.47
2023-01-12T19:29:26.408Z,2.03
2023-01-12T19:31:53.716Z,2.37
2023-01-12T19:34:20.965Z,2.80
2023-01-12T19:36:48.184Z,2.28
2023-01-12T19:39:20.663Z,2.60
2023-01-12T19:42:06.238Z,2.40
2023-01-12T19:44:33.523Z,2.30
2023-01-12T19:47:00.659Z,2.70
2023-01-12T19:49:27.916Z,2.30
2023-01-12T19:51:55.074Z,2.50
2023-01-12T19:54:22.295Z,2.90
2023-01-12T19:56:49.470Z,2.78
2023-01-12T19:59:16.736Z,2.78
2023-01-12T20:01:44.009Z,2.40
2023-01-12T20:04:11.203Z,2.25
2023-01-12T20:06:38.387Z,2.67
2023-01-12T20:09:05.534Z,2.28
2023-01-12T20:11:32.771Z,2.97
2023-01-12T20:13:59.940Z,2.15
2023-01-12T20:16:27.578Z,2.00
2023-01-12T20:18:56.130Z,2.20
2023-01-12T20:21:23.386Z,2.35
2023-01-12T20:23:52.356Z,1.85
2023-01-12T20:26:19.784Z,2.58
2023-01-12T20:28:46.951Z,2.08
2023-01-12T20:31:15.910Z,2.00
2023-01-12T20:33:43.405Z,1.73
2023-01-12T20:36:15.931Z,2.50
2023-01-12T20:38:43.269Z,2.10
2023-01-12T20:41:10.833Z,2.20
2023-01-12T20:43:38.118Z,2.05
2023-01-12T20:46:09.449Z,1.80
2023-01-12T20:48:37.209Z,2.45
2023-01-12T20:51:09.212Z,2.42
2023-01-12T20:53:36.631Z,2.03
2023-01-12T20:56:04.359Z,2.30
2023-01-12T20:58:32.094Z,2.20
2023-01-12T21:00:59.428Z,2.10
2023-01-12T21:03:26.847Z,2.20
2023-01-12T21:05:55.037Z,2.20
2023-01-12T21:08:22.393Z,1.95
2023-01-12T21:10:53.982Z,2.40
2023-01-12T21:13:21.931Z,2.20
2023-01-12T21:15:56.171Z,2.03
2023-01-12T21:18:23.340Z,2.40
2023-01-12T21:20:50.474Z,2.33
2023-01-12T21:23:17.905Z,2.60
2023-01-12T21:25:45.307Z,2.58
2023-01-12T21:28:12.615Z,2.97
2023-01-12T21:30:40.440Z,2.60
2023-01-12T21:33:07.709Z,2.70
2023-01-12T21:35:35.183Z,2.50
2023-01-12T21:38:03.245Z,2.40
2023-01-12T21:40:31.088Z,2.67
2023-01-12T21:43:11.814Z,3.13
2023-01-12T21:45:43.481Z,2.80
2023-01-12T21:48:12.505Z,3.00
2023-01-12T21:50:40.087Z,3.15
2023-01-12T21:53:07.957Z,2.83
2023-01-12T21:55:35.703Z,3.42
2023-01-12T21:58:03.048Z,3.78
2023-01-12T22:00:30.772Z,3.03
2023-01-12T22:02:58.064Z,2.40
2023-01-12T22:05:25.792Z,2.60
2023-01-12T22:07:55.092Z,2.65
2023-01-12T22:10:23.939Z,2.70
2023-01-12T22:12:56.889Z,2.90
2023-01-12T22:15:26.137Z,2.92
2023-01-12T22:17:54.767Z,3.30
2023-01-12T22:20:22.716Z,3.47
2023-01-12T22:22:50.638Z,3.20
2023-01-12T22:25:18.285Z,3.60
2023-01-12T22:27:46.247Z,3.08
2023-01-12T22:30:16.783Z,4.17
2023-01-12T22:32:44.480Z,3.78
2023-01-12T22:35:15.297Z,3.75
2023-01-12T22:37:42.582Z,3.83
2023-01-12T22:40:11.403Z,4.07
2023-01-12T22:42:57.405Z,5.07
2023-01-12T22:45:24.675Z,4.32
2023-01-12T22:47:53.791Z,3.90
2023-01-12T22:50:21.827Z,4.65
2023-01-12T22:52:51.943Z,3.70
2023-01-12T22:55:20.279Z,4.03
2023-01-12T22:57:47.703Z,4.25
2023-01-12T23:00:18.791Z,4.90
2023-01-12T23:03:01.722Z,4.38
2023-01-12T23:05:35.973Z,4.47
2023-01-12T23:08:05.034Z,4.63
2023-01-12T23:10:32.603Z,4.45
2023-01-12T23:13:13.775Z,4.57
2023-01-12T23:15:43.555Z,4.82
2023-01-12T23:18:11.874Z,4.63
2023-01-12T23:20:39.488Z,4.85
2023-01-12T23:23:07.722Z,4.47
2023-01-12T23:25:36.059Z,4.57
2023-01-12T23:28:04.347Z,4.10
2023-01-12T23:30:31.815Z,3.93
2023-01-12T23:33:00.277Z,4.40
2023-01-12T23:35:27.623Z,4.20
2023-01-12T23:37:54.774Z,3.88
2023-01-12T23:40:21.938Z,4.57
2023-01-12T23:42:49.118Z,4.75
2023-01-12T23:45:16.302Z,3.65
2023-01-12T23:47:43.533Z,3.38
2023-01-12T23:50:12.041Z,3.30
2023-01-12T23:52:39.335Z,3.75
2023-01-12T23:55:07.384Z,4.22
2023-01-12T23:57:35.458Z,4.05
